Barnard, Indiana
Current Conditions -  °F | °C
As of 9:15 AM on Thursday 23 Oct 2014 (Local Time) from K4I7 Reporting Station
Haze Haze  
Wind Chill:   Ceiling: 700
Heat Index:   Visibility: 1.2mi
Dew Point:   Wind: 0mph
Humidity: 100%   Direction: NA
Pressure: 30.26"   Gusts: NA
Location:  39.821°N, 86.7929°W
Report Text: K4I7 231315Z AUTO 00000KT 1 1/4SM BR VV007 02/02 A3026 RMK AO2
Loading
Personal Weather Stations






























Interactive Weather Map
Tropical Storm Tracking
New forecast layout! Learn more

10-Day Weather Forecast

Advertisements
Track Severe Weather on mobile